sensor_id;sensor_type;location;lat;lon;timestamp;temperature;humidity
52267;DHT22;38223;50.940;4.034;2023-04-03T00:02:27;5.90;99.90
52267;DHT22;38223;50.940;4.034;2023-04-03T00:04:59;5.90;99.90
52267;DHT22;38223;50.940;4.034;2023-04-03T00:07:32;5.90;99.90
52267;DHT22;38223;50.940;4.034;2023-04-03T00:10:06;5.90;99.90
52267;DHT22;38223;50.940;4.034;2023-04-03T00:12:37;5.90;99.90
52267;DHT22;38223;50.940;4.034;2023-04-03T00:15:07;5.90;99.90
52267;DHT22;38223;50.940;4.034;2023-04-03T00:17:39;5.90;99.90
52267;DHT22;38223;50.940;4.034;2023-04-03T00:20:10;5.90;99.90
52267;DHT22;38223;50.940;4.034;2023-04-03T00:22:44;5.90;99.90
52267;DHT22;38223;50.940;4.034;2023-04-03T00:25:13;6.10;99.90
52267;DHT22;38223;50.940;4.034;2023-04-03T00:27:45;6.30;99.90
52267;DHT22;38223;50.940;4.034;2023-04-03T00:30:21;6.10;99.90
52267;DHT22;38223;50.940;4.034;2023-04-03T00:32:54;6.00;99.90
52267;DHT22;38223;50.940;4.034;2023-04-03T00:35:24;6.00;99.90
52267;DHT22;38223;50.940;4.034;2023-04-03T00:37:55;5.90;99.90
52267;DHT22;38223;50.940;4.034;2023-04-03T00:40:25;5.80;99.90
52267;DHT22;38223;50.940;4.034;2023-04-03T00:42:57;5.90;99.90
52267;DHT22;38223;50.940;4.034;2023-04-03T00:45:34;5.80;99.90
52267;DHT22;38223;50.940;4.034;2023-04-03T00:48:06;5.70;99.90
52267;DHT22;38223;50.940;4.034;2023-04-03T00:50:41;5.70;99.90
52267;DHT22;38223;50.940;4.034;2023-04-03T00:53:21;5.60;99.90
52267;DHT22;38223;50.940;4.034;2023-04-03T00:55:52;5.60;99.90
52267;DHT22;38223;50.940;4.034;2023-04-03T00:58:22;5.50;99.90
52267;DHT22;38223;50.940;4.034;2023-04-03T01:00:52;5.40;99.90
52267;DHT22;38223;50.940;4.034;2023-04-03T01:03:26;5.50;99.90
52267;DHT22;38223;50.940;4.034;2023-04-03T01:05:56;5.40;99.90
52267;DHT22;38223;50.940;4.034;2023-04-03T01:08:28;5.30;99.90
52267;DHT22;38223;50.940;4.034;2023-04-03T01:10:58;5.20;99.90
52267;DHT22;38223;50.940;4.034;2023-04-03T01:13:33;5.20;99.90
52267;DHT22;38223;50.940;4.034;2023-04-03T01:16:06;5.20;99.90
52267;DHT22;38223;50.940;4.034;2023-04-03T01:18:40;5.40;99.90
52267;DHT22;38223;50.940;4.034;2023-04-03T01:21:28;5.50;99.90
52267;DHT22;38223;50.940;4.034;2023-04-03T01:24:12;5.50;99.90
52267;DHT22;38223;50.940;4.034;2023-04-03T01:26:42;5.30;99.90
52267;DHT22;38223;50.940;4.034;2023-04-03T01:29:12;5.40;99.90
52267;DHT22;38223;50.940;4.034;2023-04-03T01:32:00;5.60;99.90
52267;DHT22;38223;50.940;4.034;2023-04-03T01:34:38;5.60;99.90
52267;DHT22;38223;50.940;4.034;2023-04-03T01:37:24;5.50;99.90
52267;DHT22;38223;50.940;4.034;2023-04-03T01:39:54;5.50;99.90
52267;DHT22;38223;50.940;4.034;2023-04-03T01:42:21;5.50;99.90
52267;DHT22;38223;50.940;4.034;2023-04-03T01:44:49;5.50;99.90
52267;DHT22;38223;50.940;4.034;2023-04-03T01:47:28;5.40;99.90
52267;DHT22;38223;50.940;4.034;2023-04-03T01:49:57;5.40;99.90
52267;DHT22;38223;50.940;4.034;2023-04-03T01:52:27;5.30;99.90
52267;DHT22;38223;50.940;4.034;2023-04-03T01:55:01;5.30;99.90
52267;DHT22;38223;50.940;4.034;2023-04-03T01:57:34;5.30;99.90
52267;DHT22;38223;50.940;4.034;2023-04-03T02:00:10;5.30;99.90
52267;DHT22;38223;50.940;4.034;2023-04-03T02:02:39;5.30;99.90
52267;DHT22;38223;50.940;4.034;2023-04-03T02:05:12;5.30;99.90
52267;DHT22;38223;50.940;4.034;2023-04-03T02:07:41;5.30;99.90
52267;DHT22;38223;50.940;4.034;2023-04-03T02:10:09;5.30;99.90
52267;DHT22;38223;50.940;4.034;2023-04-03T02:12:38;5.20;99.90
52267;DHT22;38223;50.940;4.034;2023-04-03T02:15:11;5.20;99.90
52267;DHT22;38223;50.940;4.034;2023-04-03T02:17:41;5.30;99.90
52267;DHT22;38223;50.940;4.034;2023-04-03T02:20:14;5.40;99.90
52267;DHT22;38223;50.940;4.034;2023-04-03T02:22:48;5.40;99.90
52267;DHT22;38223;50.940;4.034;2023-04-03T02:25:20;5.20;99.90
52267;DHT22;38223;50.940;4.034;2023-04-03T02:27:52;5.20;99.90
52267;DHT22;38223;50.940;4.034;2023-04-03T02:30:22;5.10;99.90
52267;DHT22;38223;50.940;4.034;2023-04-03T02:32:50;5.10;99.90
52267;DHT22;38223;50.940;4.034;2023-04-03T02:35:18;5.00;99.90
52267;DHT22;38223;50.940;4.034;2023-04-03T02:37:46;5.00;99.90
52267;DHT22;38223;50.940;4.034;2023-04-03T02:40:19;5.00;99.90
52267;DHT22;38223;50.940;4.034;2023-04-03T02:42:53;5.10;99.90
52267;DHT22;38223;50.940;4.034;2023-04-03T02:45:22;5.00;99.90
52267;DHT22;38223;50.940;4.034;2023-04-03T02:47:54;5.10;99.90
52267;DHT22;38223;50.940;4.034;2023-04-03T02:50:29;5.10;99.90
52267;DHT22;38223;50.940;4.034;2023-04-03T02:53:00;5.10;99.90
52267;DHT22;38223;50.940;4.034;2023-04-03T02:55:33;4.90;99.90
52267;DHT22;38223;50.940;4.034;2023-04-03T02:58:06;4.90;99.90
52267;DHT22;38223;50.940;4.034;2023-04-03T03:00:36;4.80;99.90
52267;DHT22;38223;50.940;4.034;2023-04-03T03:03:08;4.80;99.90
52267;DHT22;38223;50.940;4.034;2023-04-03T03:05:41;4.80;99.90
52267;DHT22;38223;50.940;4.034;2023-04-03T03:08:14;5.00;99.90
52267;DHT22;38223;50.940;4.034;2023-04-03T03:10:42;5.10;99.90
52267;DHT22;38223;50.940;4.034;2023-04-03T03:13:14;5.20;99.90
52267;DHT22;38223;50.940;4.034;2023-04-03T03:15:43;5.20;99.90
52267;DHT22;38223;50.940;4.034;2023-04-03T03:18:11;5.30;99.90
52267;DHT22;38223;50.940;4.034;2023-04-03T03:20:41;5.30;99.90
52267;DHT22;38223;50.940;4.034;2023-04-03T03:23:09;5.40;99.90
52267;DHT22;38223;50.940;4.034;2023-04-03T03:25:41;5.30;99.90
52267;DHT22;38223;50.940;4.034;2023-04-03T03:28:14;5.30;99.90
52267;DHT22;38223;50.940;4.034;2023-04-03T03:30:42;5.20;99.90
52267;DHT22;38223;50.940;4.034;2023-04-03T03:33:17;5.20;99.90
52267;DHT22;38223;50.940;4.034;2023-04-03T03:35:44;5.20;99.90
52267;DHT22;38223;50.940;4.034;2023-04-03T03:38:14;5.20;99.90
52267;DHT22;38223;50.940;4.034;2023-04-03T03:40:42;5.20;99.90
52267;DHT22;38223;50.940;4.034;2023-04-03T03:43:10;5.30;99.90
52267;DHT22;38223;50.940;4.034;2023-04-03T03:45:38;5.30;99.90
52267;DHT22;38223;50.940;4.034;2023-04-03T03:48:06;5.30;99.90
52267;DHT22;38223;50.940;4.034;2023-04-03T03:50:33;5.30;99.90
52267;DHT22;38223;50.940;4.034;2023-04-03T03:53:05;5.40;99.90
52267;DHT22;38223;50.940;4.034;2023-04-03T03:55:34;5.40;99.90
52267;DHT22;38223;50.940;4.034;2023-04-03T03:58:06;5.40;99.90
52267;DHT22;38223;50.940;4.034;2023-04-03T04:00:37;5.40;99.90
52267;DHT22;38223;50.940;4.034;2023-04-03T04:03:04;5.30;99.90
52267;DHT22;38223;50.940;4.034;2023-04-03T04:05:33;5.40;99.90
52267;DHT22;38223;50.940;4.034;2023-04-03T04:08:03;5.40;99.90
52267;DHT22;38223;50.940;4.034;2023-04-03T04:10:37;5.30;99.90
52267;DHT22;38223;50.940;4.034;2023-04-03T04:13:10;5.30;99.90
52267;DHT22;38223;50.940;4.034;2023-04-03T04:15:41;5.30;99.90
52267;DHT22;38223;50.940;4.034;2023-04-03T04:18:11;5.30;99.90
52267;DHT22;38223;50.940;4.034;2023-04-03T04:20:46;5.20;99.90
52267;DHT22;38223;50.940;4.034;2023-04-03T04:23:19;5.20;99.90
52267;DHT22;38223;50.940;4.034;2023-04-03T04:25:47;5.20;99.90
52267;DHT22;38223;50.940;4.034;2023-04-03T04:28:18;5.10;99.90
52267;DHT22;38223;50.940;4.034;2023-04-03T04:30:52;5.10;99.90
52267;DHT22;38223;50.940;4.034;2023-04-03T04:33:25;5.00;99.90
52267;DHT22;38223;50.940;4.034;2023-04-03T04:35:57;4.90;99.90
52267;DHT22;38223;50.940;4.034;2023-04-03T04:38:30;5.00;99.90
52267;DHT22;38223;50.940;4.034;2023-04-03T04:40:58;4.90;99.90
52267;DHT22;38223;50.940;4.034;2023-04-03T04:43:25;5.00;99.90
52267;DHT22;38223;50.940;4.034;2023-04-03T04:46:06;5.10;99.90
52267;DHT22;38223;50.940;4.034;2023-04-03T04:48:39;5.00;99.90
52267;DHT22;38223;50.940;4.034;2023-04-03T04:51:12;5.00;99.90
52267;DHT22;38223;50.940;4.034;2023-04-03T04:53:48;5.00;99.90
52267;DHT22;38223;50.940;4.034;2023-04-03T04:56:16;5.00;99.90
52267;DHT22;38223;50.940;4.034;2023-04-03T04:58:44;5.00;99.90
52267;DHT22;38223;50.940;4.034;2023-04-03T05:01:19;5.20;99.90
52267;DHT22;38223;50.940;4.034;2023-04-03T05:03:52;5.20;99.90
52267;DHT22;38223;50.940;4.034;2023-04-03T05:06:25;5.10;99.90
52267;DHT22;38223;50.940;4.034;2023-04-03T05:08:54;5.00;99.90
52267;DHT22;38223;50.940;4.034;2023-04-03T05:11:26;4.90;99.90
52267;DHT22;38223;50.940;4.034;2023-04-03T05:13:57;4.90;99.90
52267;DHT22;38223;50.940;4.034;2023-04-03T05:16:28;4.90;99.90
52267;DHT22;38223;50.940;4.034;2023-04-03T05:19:03;4.90;99.90
52267;DHT22;38223;50.940;4.034;2023-04-03T05:21:33;4.90;99.90
52267;DHT22;38223;50.940;4.034;2023-04-03T05:24:04;4.80;99.90
52267;DHT22;38223;50.940;4.034;2023-04-03T05:26:35;4.70;99.90
52267;DHT22;38223;50.940;4.034;2023-04-03T05:29:09;4.80;99.90
52267;DHT22;38223;50.940;4.034;2023-04-03T05:31:41;4.70;99.90
52267;DHT22;38223;50.940;4.034;2023-04-03T05:34:16;4.80;99.90
52267;DHT22;38223;50.940;4.034;2023-04-03T05:36:45;5.00;99.90
52267;DHT22;38223;50.940;4.034;2023-04-03T05:39:14;4.90;99.90
52267;DHT22;38223;50.940;4.034;2023-04-03T05:41:43;5.00;99.90
52267;DHT22;38223;50.940;4.034;2023-04-03T05:44:16;4.80;99.90
52267;DHT22;38223;50.940;4.034;2023-04-03T05:46:47;4.80;99.90
52267;DHT22;38223;50.940;4.034;2023-04-03T05:49:21;4.90;99.90
52267;DHT22;38223;50.940;4.034;2023-04-03T05:51:55;5.00;99.90
52267;DHT22;38223;50.940;4.034;2023-04-03T05:54:28;5.00;99.90
52267;DHT22;38223;50.940;4.034;2023-04-03T05:56:59;5.00;99.90
52267;DHT22;38223;50.940;4.034;2023-04-03T05:59:32;5.00;99.90
52267;DHT22;38223;50.940;4.034;2023-04-03T06:02:02;5.00;99.90
52267;DHT22;38223;50.940;4.034;2023-04-03T06:04:34;5.10;99.90
52267;DHT22;38223;50.940;4.034;2023-04-03T06:07:05;5.20;99.90
52267;DHT22;38223;50.940;4.034;2023-04-03T06:09:39;5.20;99.90
52267;DHT22;38223;50.940;4.034;2023-04-03T06:12:15;5.20;99.90
52267;DHT22;38223;50.940;4.034;2023-04-03T06:14:48;5.20;99.90
52267;DHT22;38223;50.940;4.034;2023-04-03T06:17:19;5.20;99.90
52267;DHT22;38223;50.940;4.034;2023-04-03T06:19:50;5.00;99.90
52267;DHT22;38223;50.940;4.034;2023-04-03T06:22:19;5.10;99.90
52267;DHT22;38223;50.940;4.034;2023-04-03T06:24:53;5.10;99.90
52267;DHT22;38223;50.940;4.034;2023-04-03T06:27:28;5.20;99.90
52267;DHT22;38223;50.940;4.034;2023-04-03T06:30:00;5.10;99.90
52267;DHT22;38223;50.940;4.034;2023-04-03T06:32:32;5.10;99.90
52267;DHT22;38223;50.940;4.034;2023-04-03T06:35:02;5.20;99.90
52267;DHT22;38223;50.940;4.034;2023-04-03T06:37:37;5.20;99.90
52267;DHT22;38223;50.940;4.034;2023-04-03T06:40:15;5.00;99.90
52267;DHT22;38223;50.940;4.034;2023-04-03T06:42:44;4.90;99.90
52267;DHT22;38223;50.940;4.034;2023-04-03T06:45:23;5.20;99.90
52267;DHT22;38223;50.940;4.034;2023-04-03T06:47:52;5.70;99.90
52267;DHT22;38223;50.940;4.034;2023-04-03T06:50:20;5.90;99.90
52267;DHT22;38223;50.940;4.034;2023-04-03T06:52:47;6.00;99.90
52267;DHT22;38223;50.940;4.034;2023-04-03T06:55:15;5.90;99.90
52267;DHT22;38223;50.940;4.034;2023-04-03T06:57:50;5.70;99.90
52267;DHT22;38223;50.940;4.034;2023-04-03T07:00:19;5.50;99.90
52267;DHT22;38223;50.940;4.034;2023-04-03T07:02:47;5.40;99.90
52267;DHT22;38223;50.940;4.034;2023-04-03T07:05:15;5.50;99.90
52267;DHT22;38223;50.940;4.034;2023-04-03T07:07:54;5.50;99.90
52267;DHT22;38223;50.940;4.034;2023-04-03T07:10:24;5.20;99.90
52267;DHT22;38223;50.940;4.034;2023-04-03T07:12:55;5.20;99.90
52267;DHT22;38223;50.940;4.034;2023-04-03T07:15:25;5.10;99.90
52267;DHT22;38223;50.940;4.034;2023-04-03T07:17:57;5.00;99.90
52267;DHT22;38223;50.940;4.034;2023-04-03T07:20:32;5.10;99.90
52267;DHT22;38223;50.940;4.034;2023-04-03T07:23:03;5.20;99.90
52267;DHT22;38223;50.940;4.034;2023-04-03T07:25:36;5.10;99.90
52267;DHT22;38223;50.940;4.034;2023-04-03T07:28:05;5.00;99.90
52267;DHT22;38223;50.940;4.034;2023-04-03T07:30:45;5.00;99.90
52267;DHT22;38223;50.940;4.034;2023-04-03T07:33:15;4.90;99.90
52267;DHT22;38223;50.940;4.034;2023-04-03T07:35:49;4.90;99.90
52267;DHT22;38223;50.940;4.034;2023-04-03T07:38:22;4.90;99.90
52267;DHT22;38223;50.940;4.034;2023-04-03T07:40:55;4.90;99.90
52267;DHT22;38223;50.940;4.034;2023-04-03T07:43:24;5.00;99.90
52267;DHT22;38223;50.940;4.034;2023-04-03T07:45:55;5.10;99.90
52267;DHT22;38223;50.940;4.034;2023-04-03T07:48:29;5.10;99.90
52267;DHT22;38223;50.940;4.034;2023-04-03T07:51:04;5.20;99.90
52267;DHT22;38223;50.940;4.034;2023-04-03T07:53:36;5.20;99.90
52267;DHT22;38223;50.940;4.034;2023-04-03T07:56:12;5.20;99.90
52267;DHT22;38223;50.940;4.034;2023-04-03T07:58:47;5.40;99.90
52267;DHT22;38223;50.940;4.034;2023-04-03T08:01:16;5.50;99.90
52267;DHT22;38223;50.940;4.034;2023-04-03T08:03:49;5.50;99.90
52267;DHT22;38223;50.940;4.034;2023-04-03T08:06:19;5.50;99.90
52267;DHT22;38223;50.940;4.034;2023-04-03T08:08:55;5.40;99.90
52267;DHT22;38223;50.940;4.034;2023-04-03T08:11:32;5.40;99.90
52267;DHT22;38223;50.940;4.034;2023-04-03T08:14:01;5.50;99.90
52267;DHT22;38223;50.940;4.034;2023-04-03T08:16:33;5.50;99.90
52267;DHT22;38223;50.940;4.034;2023-04-03T08:19:04;5.50;99.90
52267;DHT22;38223;50.940;4.034;2023-04-03T08:21:37;5.60;99.90
52267;DHT22;38223;50.940;4.034;2023-04-03T08:24:12;5.80;99.90
52267;DHT22;38223;50.940;4.034;2023-04-03T08:26:46;5.90;99.90
52267;DHT22;38223;50.940;4.034;2023-04-03T08:29:15;6.00;99.90
52267;DHT22;38223;50.940;4.034;2023-04-03T08:31:44;6.00;99.90
52267;DHT22;38223;50.940;4.034;2023-04-03T08:34:13;6.00;99.90
52267;DHT22;38223;50.940;4.034;2023-04-03T08:36:41;6.00;99.90
52267;DHT22;38223;50.940;4.034;2023-04-03T08:39:13;6.10;99.90
52267;DHT22;38223;50.940;4.034;2023-04-03T08:41:47;6.10;99.90
52267;DHT22;38223;50.940;4.034;2023-04-03T08:44:50;6.20;99.90
52267;DHT22;38223;50.940;4.034;2023-04-03T08:49:53;6.20;99.90
52267;DHT22;38223;50.940;4.034;2023-04-03T08:52:40;6.20;99.90
52267;DHT22;38223;50.940;4.034;2023-04-03T08:55:28;6.20;99.90
52267;DHT22;38223;50.940;4.034;2023-04-03T08:58:05;6.20;99.90
52267;DHT22;38223;50.940;4.034;2023-04-03T09:01:02;6.40;99.90
52267;DHT22;38223;50.940;4.034;2023-04-03T09:03:40;6.50;99.90
52267;DHT22;38223;50.940;4.034;2023-04-03T09:06:15;6.40;99.90
52267;DHT22;38223;50.940;4.034;2023-04-03T09:14:33;6.50;99.90
52267;DHT22;38223;50.940;4.034;2023-04-03T09:17:27;6.60;99.90
52267;DHT22;38223;50.940;4.034;2023-04-03T09:22:44;6.70;99.90
52267;DHT22;38223;50.940;4.034;2023-04-03T09:25:23;6.70;99.90
52267;DHT22;38223;50.940;4.034;2023-04-03T09:27:57;6.80;99.90
52267;DHT22;38223;50.940;4.034;2023-04-03T09:30:33;6.80;99.90
52267;DHT22;38223;50.940;4.034;2023-04-03T09:33:14;6.90;99.90
52267;DHT22;38223;50.940;4.034;2023-04-03T09:35:44;6.90;99.90
52267;DHT22;38223;50.940;4.034;2023-04-03T09:38:26;6.80;99.90
52267;DHT22;38223;50.940;4.034;2023-04-03T09:41:06;6.90;99.90
52267;DHT22;38223;50.940;4.034;2023-04-03T09:43:39;7.20;99.90
52267;DHT22;38223;50.940;4.034;2023-04-03T09:46:34;7.30;99.90
52267;DHT22;38223;50.940;4.034;2023-04-03T09:49:10;7.20;99.90
52267;DHT22;38223;50.940;4.034;2023-04-03T09:51:45;7.20;99.90
52267;DHT22;38223;50.940;4.034;2023-04-03T09:54:38;7.20;99.90
52267;DHT22;38223;50.940;4.034;2023-04-03T09:57:12;7.20;99.90
52267;DHT22;38223;50.940;4.034;2023-04-03T09:59:56;7.20;99.90
52267;DHT22;38223;50.940;4.034;2023-04-03T10:02:30;7.30;99.90
52267;DHT22;38223;50.940;4.034;2023-04-03T10:05:02;7.30;99.90
52267;DHT22;38223;50.940;4.034;2023-04-03T10:07:32;7.40;99.90
52267;DHT22;38223;50.940;4.034;2023-04-03T10:10:16;7.50;99.90
52267;DHT22;38223;50.940;4.034;2023-04-03T10:12:35;7.60;99.90
52267;DHT22;38223;50.940;4.034;2023-04-03T10:15:14;7.50;99.90
52267;DHT22;38223;50.940;4.034;2023-04-03T10:18:00;7.50;99.90
52267;DHT22;38223;50.940;4.034;2023-04-03T10:20:37;7.60;99.90
52267;DHT22;38223;50.940;4.034;2023-04-03T10:23:16;7.60;99.90
52267;DHT22;38223;50.940;4.034;2023-04-03T10:31:44;7.80;99.90
52267;DHT22;38223;50.940;4.034;2023-04-03T10:34:35;7.80;99.90
52267;DHT22;38223;50.940;4.034;2023-04-03T10:37:17;7.80;99.90
52267;DHT22;38223;50.940;4.034;2023-04-03T10:39:57;7.90;99.90
52267;DHT22;38223;50.940;4.034;2023-04-03T10:42:44;8.00;99.90
52267;DHT22;38223;50.940;4.034;2023-04-03T10:54:05;8.10;99.90
52267;DHT22;38223;50.940;4.034;2023-04-03T10:56:47;8.20;99.90
52267;DHT22;38223;50.940;4.034;2023-04-03T10:59:27;8.20;99.90
52267;DHT22;38223;50.940;4.034;2023-04-03T11:02:04;8.30;99.90
52267;DHT22;38223;50.940;4.034;2023-04-03T11:04:37;8.50;99.90
52267;DHT22;38223;50.940;4.034;2023-04-03T11:07:11;8.50;99.90
52267;DHT22;38223;50.940;4.034;2023-04-03T11:12:48;8.50;99.90
52267;DHT22;38223;50.940;4.034;2023-04-03T11:15:18;8.50;99.90
52267;DHT22;38223;50.940;4.034;2023-04-03T11:20:30;8.60;99.90
52267;DHT22;38223;50.940;4.034;2023-04-03T11:23:24;8.70;99.90
52267;DHT22;38223;50.940;4.034;2023-04-03T11:25:59;8.80;99.90
52267;DHT22;38223;50.940;4.034;2023-04-03T11:28:31;8.70;99.90
52267;DHT22;38223;50.940;4.034;2023-04-03T11:37:05;8.80;99.90
52267;DHT22;38223;50.940;4.034;2023-04-03T11:39:39;9.00;99.90
52267;DHT22;38223;50.940;4.034;2023-04-03T11:42:30;9.00;99.90
52267;DHT22;38223;50.940;4.034;2023-04-03T11:44:48;9.10;99.90
52267;DHT22;38223;50.940;4.034;2023-04-03T11:47:47;9.10;99.90
52267;DHT22;38223;50.940;4.034;2023-04-03T11:53:26;9.10;99.90
52267;DHT22;38223;50.940;4.034;2023-04-03T11:59:33;9.30;99.90
52267;DHT22;38223;50.940;4.034;2023-04-03T12:07:00;9.30;99.90
52267;DHT22;38223;50.940;4.034;2023-04-03T12:12:28;9.20;99.90
52267;DHT22;38223;50.940;4.034;2023-04-03T12:15:24;9.20;99.90
52267;DHT22;38223;50.940;4.034;2023-04-03T12:20:58;9.30;99.90
52267;DHT22;38223;50.940;4.034;2023-04-03T12:23:33;9.30;99.50
52267;DHT22;38223;50.940;4.034;2023-04-03T12:26:25;9.30;98.20
52267;DHT22;38223;50.940;4.034;2023-04-03T12:28:57;9.40;98.40
52267;DHT22;38223;50.940;4.034;2023-04-03T12:31:35;9.40;97.40
52267;DHT22;38223;50.940;4.034;2023-04-03T12:34:09;9.30;96.90
52267;DHT22;38223;50.940;4.034;2023-04-03T12:39:54;9.50;97.00
52267;DHT22;38223;50.940;4.034;2023-04-03T12:42:48;9.60;96.90
52267;DHT22;38223;50.940;4.034;2023-04-03T12:45:28;9.50;96.00
52267;DHT22;38223;50.940;4.034;2023-04-03T12:48:01;9.50;97.50
52267;DHT22;38223;50.940;4.034;2023-04-03T12:50:32;9.50;96.50
52267;DHT22;38223;50.940;4.034;2023-04-03T12:53:12;9.80;96.40
52267;DHT22;38223;50.940;4.034;2023-04-03T12:55:36;9.90;95.40
52267;DHT22;38223;50.940;4.034;2023-04-03T12:58:21;9.80;93.20
52267;DHT22;38223;50.940;4.034;2023-04-03T13:01:09;9.60;92.40
52267;DHT22;38223;50.940;4.034;2023-04-03T13:03:42;9.50;90.70
52267;DHT22;38223;50.940;4.034;2023-04-03T13:06:28;9.70;91.40
52267;DHT22;38223;50.940;4.034;2023-04-03T13:09:00;9.80;90.30
52267;DHT22;38223;50.940;4.034;2023-04-03T13:11:35;9.90;90.30
52267;DHT22;38223;50.940;4.034;2023-04-03T13:14:24;10.00;87.50
52267;DHT22;38223;50.940;4.034;2023-04-03T13:16:41;9.90;85.70
52267;DHT22;38223;50.940;4.034;2023-04-03T13:19:17;9.90;86.80
52267;DHT22;38223;50.940;4.034;2023-04-03T13:21:46;10.10;86.70
52267;DHT22;38223;50.940;4.034;2023-04-03T13:24:18;10.20;84.30
52267;DHT22;38223;50.940;4.034;2023-04-03T13:26:46;10.30;85.20
52267;DHT22;38223;50.940;4.034;2023-04-03T13:32:20;10.10;84.20
52267;DHT22;38223;50.940;4.034;2023-04-03T13:37:35;10.10;82.70
52267;DHT22;38223;50.940;4.034;2023-04-03T13:40:11;10.20;81.60
52267;DHT22;38223;50.940;4.034;2023-04-03T13:42:42;10.20;81.80
52267;DHT22;38223;50.940;4.034;2023-04-03T13:45:24;10.10;81.70
52267;DHT22;38223;50.940;4.034;2023-04-03T13:47:51;10.00;83.30
52267;DHT22;38223;50.940;4.034;2023-04-03T13:50:22;10.00;81.90
52267;DHT22;38223;50.940;4.034;2023-04-03T13:53:00;10.00;79.80
52267;DHT22;38223;50.940;4.034;2023-04-03T13:55:34;10.10;80.20
52267;DHT22;38223;50.940;4.034;2023-04-03T14:00:55;9.90;78.30
52267;DHT22;38223;50.940;4.034;2023-04-03T14:04:17;9.90;80.60
52267;DHT22;38223;50.940;4.034;2023-04-03T14:06:09;10.00;79.60
52267;DHT22;38223;50.940;4.034;2023-04-03T14:08:45;10.10;80.70
52267;DHT22;38223;50.940;4.034;2023-04-03T14:11:21;10.10;78.10
52267;DHT22;38223;50.940;4.034;2023-04-03T14:13:51;10.00;77.60
52267;DHT22;38223;50.940;4.034;2023-04-03T14:16:28;10.00;77.80
52267;DHT22;38223;50.940;4.034;2023-04-03T14:18:58;10.10;79.20
52267;DHT22;38223;50.940;4.034;2023-04-03T14:21:26;10.30;78.90
52267;DHT22;38223;50.940;4.034;2023-04-03T14:23:53;10.40;80.20
52267;DHT22;38223;50.940;4.034;2023-04-03T14:26:23;10.40;79.30
52267;DHT22;38223;50.940;4.034;2023-04-03T14:28:54;10.30;79.10
52267;DHT22;38223;50.940;4.034;2023-04-03T14:31:22;10.20;79.50
52267;DHT22;38223;50.940;4.034;2023-04-03T14:33:50;10.20;80.20
52267;DHT22;38223;50.940;4.034;2023-04-03T14:36:20;10.30;80.60
52267;DHT22;38223;50.940;4.034;2023-04-03T14:38:50;10.20;78.50
52267;DHT22;38223;50.940;4.034;2023-04-03T14:41:44;10.30;79.10
52267;DHT22;38223;50.940;4.034;2023-04-03T14:44:12;10.40;78.80
52267;DHT22;38223;50.940;4.034;2023-04-03T14:46:42;10.40;78.80
52267;DHT22;38223;50.940;4.034;2023-04-03T14:49:18;10.30;78.70
52267;DHT22;38223;50.940;4.034;2023-04-03T14:51:50;10.40;78.90
52267;DHT22;38223;50.940;4.034;2023-04-03T14:54:20;10.40;79.70
52267;DHT22;38223;50.940;4.034;2023-04-03T14:56:52;10.50;79.20
52267;DHT22;38223;50.940;4.034;2023-04-03T14:59:22;10.50;77.80
52267;DHT22;38223;50.940;4.034;2023-04-03T15:01:50;10.60;78.80
52267;DHT22;38223;50.940;4.034;2023-04-03T15:04:19;10.70;77.40
52267;DHT22;38223;50.940;4.034;2023-04-03T15:06:48;11.20;75.70
52267;DHT22;38223;50.940;4.034;2023-04-03T15:09:23;11.60;73.20
52267;DHT22;38223;50.940;4.034;2023-04-03T15:11:52;12.00;71.90
52267;DHT22;38223;50.940;4.034;2023-04-03T15:14:22;12.60;71.10
52267;DHT22;38223;50.940;4.034;2023-04-03T15:16:53;12.80;69.40
52267;DHT22;38223;50.940;4.034;2023-04-03T15:19:23;12.90;66.80
52267;DHT22;38223;50.940;4.034;2023-04-03T15:21:51;13.20;66.30
52267;DHT22;38223;50.940;4.034;2023-04-03T15:24:19;13.60;64.50
52267;DHT22;38223;50.940;4.034;2023-04-03T15:26:46;13.70;62.80
52267;DHT22;38223;50.940;4.034;2023-04-03T15:29:14;13.70;62.60
52267;DHT22;38223;50.940;4.034;2023-04-03T15:31:42;14.50;59.60
52267;DHT22;38223;50.940;4.034;2023-04-03T15:34:09;14.70;56.90
52267;DHT22;38223;50.940;4.034;2023-04-03T15:36:38;15.00;56.40
52267;DHT22;38223;50.940;4.034;2023-04-03T15:39:06;14.80;55.10
52267;DHT22;38223;50.940;4.034;2023-04-03T15:41:39;14.30;56.50
52267;DHT22;38223;50.940;4.034;2023-04-03T15:44:08;12.70;57.90
52267;DHT22;38223;50.940;4.034;2023-04-03T15:46:35;11.60;59.60
52267;DHT22;38223;50.940;4.034;2023-04-03T15:49:09;11.00;61.80
52267;DHT22;38223;50.940;4.034;2023-04-03T15:51:38;10.70;64.70
52267;DHT22;38223;50.940;4.034;2023-04-03T15:54:06;10.60;66.20
52267;DHT22;38223;50.940;4.034;2023-04-03T15:56:33;10.60;65.60
52267;DHT22;38223;50.940;4.034;2023-04-03T15:59:01;10.50;65.80
52267;DHT22;38223;50.940;4.034;2023-04-03T16:01:29;10.50;66.00
52267;DHT22;38223;50.940;4.034;2023-04-03T16:04:01;10.50;67.10
52267;DHT22;38223;50.940;4.034;2023-04-03T16:06:32;10.50;67.40
52267;DHT22;38223;50.940;4.034;2023-04-03T16:09:07;10.40;66.50
52267;DHT22;38223;50.940;4.034;2023-04-03T16:11:40;10.60;64.90
52267;DHT22;38223;50.940;4.034;2023-04-03T16:14:08;12.10;61.20
52267;DHT22;38223;50.940;4.034;2023-04-03T16:16:37;12.40;60.00
52267;DHT22;38223;50.940;4.034;2023-04-03T16:19:05;11.70;61.50
52267;DHT22;38223;50.940;4.034;2023-04-03T16:21:34;11.10;62.90
52267;DHT22;38223;50.940;4.034;2023-04-03T16:24:09;10.60;63.70
52267;DHT22;38223;50.940;4.034;2023-04-03T16:26:39;10.40;63.70
52267;DHT22;38223;50.940;4.034;2023-04-03T16:29:08;10.30;63.80
52267;DHT22;38223;50.940;4.034;2023-04-03T16:31:36;10.30;63.10
52267;DHT22;38223;50.940;4.034;2023-04-03T16:34:04;10.30;63.30
52267;DHT22;38223;50.940;4.034;2023-04-03T16:36:31;10.30;64.00
52267;DHT22;38223;50.940;4.034;2023-04-03T16:38:59;10.40;63.90
52267;DHT22;38223;50.940;4.034;2023-04-03T16:41:26;10.60;64.00
52267;DHT22;38223;50.940;4.034;2023-04-03T16:43:58;10.50;64.10
52267;DHT22;38223;50.940;4.034;2023-04-03T16:46:34;10.40;65.70
52267;DHT22;38223;50.940;4.034;2023-04-03T16:49:05;10.30;66.60
52267;DHT22;38223;50.940;4.034;2023-04-03T16:51:35;10.30;65.60
52267;DHT22;38223;50.940;4.034;2023-04-03T16:54:03;10.20;65.10
52267;DHT22;38223;50.940;4.034;2023-04-03T16:56:31;10.10;63.50
52267;DHT22;38223;50.940;4.034;2023-04-03T16:58:58;10.10;64.00
52267;DHT22;38223;50.940;4.034;2023-04-03T17:01:26;10.10;65.10
52267;DHT22;38223;50.940;4.034;2023-04-03T17:03:54;10.00;65.20
52267;DHT22;38223;50.940;4.034;2023-04-03T17:06:22;10.00;66.00
52267;DHT22;38223;50.940;4.034;2023-04-03T17:08:51;10.00;65.90
52267;DHT22;38223;50.940;4.034;2023-04-03T17:11:23;10.10;66.30
52267;DHT22;38223;50.940;4.034;2023-04-03T17:13:54;10.00;66.70
52267;DHT22;38223;50.940;4.034;2023-04-03T17:16:22;10.00;67.60
52267;DHT22;38223;50.940;4.034;2023-04-03T17:18:55;9.90;68.40
52267;DHT22;38223;50.940;4.034;2023-04-03T17:21:23;9.90;68.80
52267;DHT22;38223;50.940;4.034;2023-04-03T17:23:54;9.90;68.90
52267;DHT22;38223;50.940;4.034;2023-04-03T17:26:25;10.00;68.90